Terminal Aerodrome Forecast
Issued by NWS Knoxville/Tri Cities, TN

Home | Current Version | Previous Version | Text Only | Print | Product List | Glossary On
Versions: 1 2 3 4 5 6 7 8 9 10 11 12 13 14 15 16 17 18 19 20 21 22 23 24 25 26 27 28 29 30 31 32 33 34 35 36 37
000
FTUS44 KMRX 071136
TAFCHA
TAF
KCHA 071136Z 0712/0812 00000KT 6SM BR SCT060
      TEMPO 0712/0713 5SM BR
     FM071300 20004KT P6SM SCT035 SCT250
     FM071800 23008KT P6SM SCT045 SCT100
     FM080100 VRB02KT P6SM FEW050 SCT250
     FM081000 00000KT 6SM BR BKN250=

USA.gov is the U.S. government's official web portal to all federal, state and local government web resources and services.